createdAt,value
2022-11-01T00:02:15.117Z,97.00
2022-11-01T00:04:43.688Z,96.90
2022-11-01T00:07:11.950Z,97.20
2022-11-01T00:09:40.334Z,97.20
2022-11-01T00:12:08.908Z,97.30
2022-11-01T00:14:38.847Z,97.30
2022-11-01T00:17:07.295Z,97.30
2022-11-01T00:19:35.776Z,97.40
2022-11-01T00:22:04.600Z,97.40
2022-11-01T00:24:33.076Z,97.40
2022-11-01T00:27:03.016Z,97.30
2022-11-01T00:29:31.396Z,97.30
2022-11-01T00:32:01.267Z,97.30
2022-11-01T00:34:29.633Z,97.40
2022-11-01T00:36:58.050Z,97.30
2022-11-01T00:39:30.534Z,97.30
2022-11-01T00:41:59.945Z,97.20
2022-11-01T00:44:28.572Z,97.10
2022-11-01T00:46:56.846Z,97.10
2022-11-01T00:49:27.369Z,97.10
2022-11-01T00:51:56.044Z,97.00
2022-11-01T00:54:24.705Z,96.90
2022-11-01T00:56:53.191Z,96.90
2022-11-01T00:59:21.767Z,96.90
2022-11-01T01:01:50.268Z,97.00
2022-11-01T01:04:19.380Z,97.00
2022-11-01T01:06:49.088Z,97.00
2022-11-01T01:09:17.379Z,97.10
2022-11-01T01:11:45.735Z,97.10
2022-11-01T01:14:14.048Z,97.20
2022-11-01T01:19:16.320Z,97.20
2022-11-01T01:21:44.715Z,97.10
2022-11-01T01:24:14.449Z,97.10
2022-11-01T01:26:42.752Z,97.00
2022-11-01T01:29:11.156Z,97.00
2022-11-01T01:31:39.761Z,97.10
2022-11-01T01:34:08.060Z,97.20
2022-11-01T01:36:36.329Z,97.30
2022-11-01T01:39:05.057Z,97.20
2022-11-01T01:41:52.272Z,97.10
2022-11-01T01:45:03.352Z,97.00
2022-11-01T01:47:33.082Z,96.80
2022-11-01T01:50:06.876Z,96.80
2022-11-01T01:52:39.555Z,96.90
2022-11-01T01:55:10.061Z,96.80
2022-11-01T01:57:40.834Z,96.80
2022-11-01T02:00:10.579Z,96.80
2022-11-01T02:02:39.345Z,96.70
2022-11-01T02:05:12.544Z,96.80
2022-11-01T02:07:41.257Z,96.90
2022-11-01T02:10:10.781Z,97.00
2022-11-01T02:12:46.187Z,97.10
2022-11-01T02:15:15.418Z,97.20
2022-11-01T02:18:11.902Z,97.10
2022-11-01T02:21:00.338Z,97.20
2022-11-01T02:23:58.077Z,97.10
2022-11-01T02:26:47.915Z,97.10
2022-11-01T02:29:35.558Z,97.10
2022-11-01T02:32:16.391Z,97.10
2022-11-01T02:34:49.207Z,97.00
2022-11-01T02:37:23.871Z,96.90
2022-11-01T02:39:56.545Z,96.80
2022-11-01T02:42:29.731Z,96.80
2022-11-01T02:45:03.357Z,96.80
2022-11-01T02:47:34.029Z,96.70
2022-11-01T02:50:05.979Z,96.70
2022-11-01T02:52:37.190Z,96.60
2022-11-01T02:55:29.885Z,96.50
2022-11-01T02:58:01.948Z,96.50
2022-11-01T03:00:32.594Z,96.50
2022-11-01T03:03:17.095Z,96.50
2022-11-01T03:06:03.902Z,96.40
2022-11-01T03:08:37.717Z,96.40
2022-11-01T03:11:11.074Z,96.40
2022-11-01T03:13:57.636Z,96.40
2022-11-01T03:16:32.169Z,96.50
2022-11-01T03:19:09.256Z,96.50
2022-11-01T03:21:42.858Z,96.50
2022-11-01T03:24:21.681Z,96.40
2022-11-01T03:26:56.861Z,96.40
2022-11-01T03:29:27.353Z,96.20
2022-11-01T03:31:57.934Z,96.10
2022-11-01T03:34:27.852Z,96.00
2022-11-01T03:37:03.667Z,96.00
2022-11-01T03:39:37.276Z,95.90
2022-11-01T03:42:09.012Z,95.90
2022-11-01T03:44:42.746Z,95.70
2022-11-01T03:47:12.668Z,95.60
2022-11-01T03:49:42.524Z,95.80
2022-11-01T03:52:11.083Z,95.90
2022-11-01T03:54:39.410Z,95.90
2022-11-01T03:57:07.737Z,96.10
2022-11-01T03:59:36.350Z,96.20
2022-11-01T04:02:04.839Z,96.30
2022-11-01T04:04:33.302Z,96.30
2022-11-01T04:07:03.124Z,96.40
2022-11-01T04:09:31.480Z,96.40
2022-11-01T04:11:59.765Z,96.50
2022-11-01T04:14:45.367Z,96.40
2022-11-01T04:17:30.960Z,96.40
2022-11-01T04:20:16.565Z,96.30
2022-11-01T04:22:46.365Z,96.40
2022-11-01T04:25:14.749Z,96.30
2022-11-01T04:27:43.059Z,96.30
2022-11-01T04:30:12.375Z,96.20
2022-11-01T04:32:44.239Z,96.10
2022-11-01T04:35:12.680Z,96.10
2022-11-01T04:37:40.977Z,96.10
2022-11-01T04:40:12.840Z,95.90
2022-11-01T04:42:41.500Z,95.90
2022-11-01T04:45:11.273Z,95.70
2022-11-01T04:47:39.697Z,95.70
2022-11-01T04:50:08.426Z,95.60
2022-11-01T04:52:36.945Z,95.50
2022-11-01T04:55:05.887Z,95.60
2022-11-01T04:57:39.876Z,95.70
2022-11-01T05:00:11.294Z,95.80
2022-11-01T05:02:41.066Z,95.60
2022-11-01T05:05:11.599Z,95.50
2022-11-01T05:07:40.330Z,95.60
2022-11-01T05:10:10.772Z,95.60
2022-11-01T05:12:40.464Z,95.60
2022-11-01T05:15:09.945Z,95.70
2022-11-01T05:17:42.985Z,95.90
2022-11-01T05:20:12.207Z,96.10
2022-11-01T05:22:40.700Z,96.30
2022-11-01T05:25:09.840Z,96.30
2022-11-01T05:27:40.205Z,96.40
2022-11-01T05:30:09.807Z,96.50
2022-11-01T05:32:38.129Z,96.50
2022-11-01T05:35:07.237Z,96.50
2022-11-01T05:37:36.873Z,96.50
2022-11-01T05:40:05.936Z,96.50
2022-11-01T05:42:34.375Z,96.60
2022-11-01T05:45:04.537Z,96.60
2022-11-01T05:47:34.028Z,96.60
2022-11-01T05:50:02.448Z,96.40
2022-11-01T05:52:30.850Z,96.30
2022-11-01T05:54:59.125Z,96.30
2022-11-01T05:57:33.136Z,96.30
2022-11-01T06:00:03.685Z,96.20
2022-11-01T06:02:33.260Z,96.30
2022-11-01T06:05:02.998Z,96.40
2022-11-01T06:07:31.677Z,96.40
2022-11-01T06:10:00.023Z,96.30
2022-11-01T06:12:28.323Z,96.20
2022-11-01T06:14:56.639Z,96.20
2022-11-01T06:17:26.471Z,96.10
2022-11-01T06:19:54.790Z,96.10
2022-11-01T06:22:23.074Z,96.10
2022-11-01T06:24:51.930Z,96.20
2022-11-01T06:27:20.288Z,96.20
2022-11-01T06:29:49.179Z,96.40
2022-11-01T06:32:17.587Z,96.50
2022-11-01T06:34:47.561Z,96.60
2022-11-01T06:37:16.048Z,96.60
2022-11-01T06:39:44.420Z,96.70
2022-11-01T06:42:12.725Z,96.80
2022-11-01T06:44:41.166Z,96.90
2022-11-01T06:47:09.783Z,97.00
2022-11-01T06:49:38.181Z,97.10
2022-11-01T06:52:08.195Z,97.20
2022-11-01T06:54:36.650Z,97.20
2022-11-01T06:57:05.059Z,97.30
2022-11-01T06:59:33.461Z,97.40
2022-11-01T07:02:01.960Z,97.50
2022-11-01T07:04:30.388Z,97.50
2022-11-01T07:06:58.670Z,97.50
2022-11-01T07:09:28.370Z,97.60
2022-11-01T07:11:56.931Z,97.70
2022-11-01T07:14:25.247Z,97.80
2022-11-01T07:16:53.546Z,97.90
2022-11-01T07:19:23.712Z,97.90
2022-11-01T07:21:52.141Z,98.00
2022-11-01T07:24:20.637Z,98.10
2022-11-01T07:26:50.597Z,98.10
2022-11-01T07:29:20.597Z,98.20
2022-11-01T07:31:49.075Z,98.30
2022-11-01T07:34:17.539Z,98.40
2022-11-01T07:36:45.903Z,98.50
2022-11-01T07:39:14.744Z,98.70
2022-11-01T07:41:43.260Z,99.00
2022-11-01T07:44:12.964Z,99.20
2022-11-01T07:46:41.421Z,99.40
2022-11-01T07:49:10.029Z,99.70
2022-11-01T07:51:38.386Z,99.80
2022-11-01T07:54:06.661Z,99.80
2022-11-01T07:56:35.642Z,99.90
2022-11-01T07:59:04.095Z,99.90
2022-11-01T08:01:33.990Z,99.90
2022-11-01T08:04:02.382Z,99.90
2022-11-01T08:06:30.736Z,99.90
2022-11-01T08:08:59.025Z,99.90
2022-11-01T08:11:27.508Z,99.90
2022-11-01T08:14:00.842Z,99.90
2022-11-01T08:16:35.253Z,99.90
2022-11-01T08:19:03.648Z,99.90
2022-11-01T08:21:32.085Z,99.90
2022-11-01T08:24:00.409Z,99.90
2022-11-01T08:26:28.835Z,99.90
2022-11-01T08:28:57.109Z,99.90
2022-11-01T08:31:25.432Z,99.90
2022-11-01T08:33:55.992Z,99.90
2022-11-01T08:36:24.432Z,99.90
2022-11-01T08:38:53.032Z,99.90
2022-11-01T08:41:21.429Z,99.90
2022-11-01T08:43:49.857Z,99.90
2022-11-01T08:46:18.292Z,99.90
2022-11-01T08:48:48.551Z,99.90
2022-11-01T08:51:24.490Z,99.90
2022-11-01T08:53:53.030Z,99.90
2022-11-01T08:56:22.043Z,99.90
2022-11-01T08:58:50.738Z,99.90
2022-11-01T09:01:19.148Z,99.90
2022-11-01T09:03:47.827Z,99.90
2022-11-01T09:06:17.934Z,99.90
2022-11-01T09:08:46.394Z,99.90
2022-11-01T09:11:14.709Z,99.90
2022-11-01T09:13:43.063Z,99.90
2022-11-01T09:16:11.529Z,99.90
2022-11-01T09:18:39.929Z,99.90
2022-11-01T09:21:08.433Z,99.90
2022-11-01T09:23:38.715Z,99.90
2022-11-01T09:26:08.697Z,99.90
2022-11-01T09:28:37.350Z,99.90
2022-11-01T09:31:19.857Z,99.90
2022-11-01T09:33:49.666Z,99.90
2022-11-01T09:36:18.206Z,99.90
2022-11-01T09:38:47.951Z,99.90
2022-11-01T09:41:28.955Z,99.90
2022-11-01T09:43:59.397Z,99.90
2022-11-01T09:46:31.490Z,99.90
2022-11-01T09:49:01.731Z,99.90
2022-11-01T09:51:30.444Z,99.90
2022-11-01T09:54:04.534Z,99.90
2022-11-01T09:56:41.348Z,99.90
2022-11-01T09:59:26.664Z,99.90
2022-11-01T10:02:09.713Z,99.90
2022-11-01T10:05:19.042Z,99.90
2022-11-01T10:07:55.113Z,99.90
2022-11-01T10:10:36.996Z,99.90
2022-11-01T10:13:25.556Z,99.90
2022-11-01T10:16:01.871Z,99.90
2022-11-01T10:18:31.441Z,99.90
2022-11-01T10:21:03.817Z,99.90
2022-11-01T10:23:43.515Z,99.90
2022-11-01T10:26:19.481Z,99.90
2022-11-01T10:28:55.436Z,99.90
2022-11-01T10:31:25.955Z,99.90
2022-11-01T10:34:00.179Z,99.90
2022-11-01T10:36:33.707Z,99.90
2022-11-01T10:42:11.282Z,99.90
2022-11-01T10:44:42.462Z,99.90
2022-11-01T10:47:18.085Z,99.90
2022-11-01T10:50:07.538Z,99.90
2022-11-01T10:52:46.310Z,99.90
2022-11-01T10:55:18.857Z,99.90
2022-11-01T10:57:55.080Z,99.90
2022-11-01T11:00:24.622Z,99.90
2022-11-01T11:02:56.591Z,99.90
2022-11-01T11:05:26.885Z,99.90
2022-11-01T11:07:57.749Z,99.90
2022-11-01T11:10:29.541Z,99.90
2022-11-01T11:13:04.788Z,99.90
2022-11-01T11:15:43.315Z,99.90
2022-11-01T11:18:25.380Z,99.90
2022-11-01T11:20:57.749Z,99.90
2022-11-01T11:23:29.706Z,99.90
2022-11-01T11:26:03.945Z,99.90
2022-11-01T11:28:36.289Z,99.90
2022-11-01T11:31:15.300Z,99.90
2022-11-01T11:33:51.252Z,99.90
2022-11-01T11:36:28.604Z,99.80
2022-11-01T11:38:57.559Z,99.90
2022-11-01T11:41:30.783Z,99.90
2022-11-01T11:44:00.893Z,99.80
2022-11-01T11:46:29.591Z,99.80
2022-11-01T11:49:01.141Z,99.90
2022-11-01T11:51:30.981Z,99.90
2022-11-01T11:54:21.191Z,99.90
2022-11-01T11:56:51.553Z,99.90
2022-11-01T11:59:26.354Z,99.90
2022-11-01T12:02:03.182Z,99.80
2022-11-01T12:04:38.647Z,99.80
2022-11-01T12:07:11.301Z,99.70
2022-11-01T12:09:46.794Z,99.50
2022-11-01T12:12:20.432Z,99.50
2022-11-01T12:15:01.967Z,99.50
2022-11-01T12:17:44.969Z,99.40
2022-11-01T12:20:26.892Z,99.10
2022-11-01T12:23:07.089Z,99.10
2022-11-01T12:25:37.364Z,99.00
2022-11-01T12:28:21.001Z,99.00
2022-11-01T12:30:55.810Z,99.00
2022-11-01T12:33:28.853Z,99.00
2022-11-01T12:35:58.744Z,99.00
2022-11-01T12:38:39.303Z,99.00
2022-11-01T12:41:19.359Z,98.90
2022-11-01T12:44:01.899Z,98.90
2022-11-01T12:46:39.554Z,98.80
2022-11-01T12:49:15.862Z,98.90
2022-11-01T12:51:50.167Z,98.80
2022-11-01T12:54:23.586Z,98.80
2022-11-01T12:56:52.121Z,98.80
2022-11-01T12:59:27.413Z,98.60
2022-11-01T13:02:03.784Z,98.50
2022-11-01T13:04:36.921Z,98.70
2022-11-01T13:07:22.833Z,98.90
2022-11-01T13:10:03.151Z,98.90
2022-11-01T13:12:41.329Z,98.70
2022-11-01T13:15:17.642Z,98.70
2022-11-01T13:17:56.684Z,98.70
2022-11-01T13:20:36.508Z,98.70
2022-11-01T13:23:16.434Z,98.40
2022-11-01T13:25:52.319Z,98.30
2022-11-01T13:28:32.780Z,98.00
2022-11-01T13:31:09.350Z,98.00
2022-11-01T13:33:47.073Z,97.90
2022-11-01T13:36:19.561Z,97.90
2022-11-01T13:38:55.153Z,97.90
2022-11-01T13:41:31.603Z,98.00
2022-11-01T13:44:06.509Z,98.40
2022-11-01T13:46:57.582Z,98.10
2022-11-01T13:50:09.793Z,98.00
2022-11-01T13:52:44.015Z,97.70
2022-11-01T13:55:23.744Z,97.40
2022-11-01T13:57:54.227Z,97.30
2022-11-01T14:00:43.620Z,96.80
2022-11-01T14:03:21.817Z,95.70
2022-11-01T14:06:26.109Z,95.00
2022-11-01T14:09:20.357Z,94.40
2022-11-01T14:11:50.554Z,94.30
2022-11-01T14:14:50.179Z,94.30
2022-11-01T14:17:52.601Z,94.40
2022-11-01T14:20:46.565Z,94.60
2022-11-01T14:23:51.432Z,94.90
2022-11-01T14:26:37.642Z,95.00
2022-11-01T14:29:11.718Z,95.10
2022-11-01T14:31:41.159Z,95.40
2022-11-01T14:34:11.364Z,95.60
2022-11-01T14:36:44.699Z,95.80
2022-11-01T14:39:21.004Z,96.00
2022-11-01T14:41:56.126Z,96.00
2022-11-01T14:44:30.430Z,96.00
2022-11-01T14:47:00.797Z,96.10
2022-11-01T14:49:34.990Z,96.40
2022-11-01T14:52:09.765Z,96.40
2022-11-01T14:54:55.175Z,96.70
2022-11-01T14:57:30.070Z,96.50
2022-11-01T15:00:00.161Z,96.80
2022-11-01T15:02:30.384Z,96.70
2022-11-01T15:05:01.152Z,96.80
2022-11-01T15:07:33.422Z,97.10
2022-11-01T15:10:06.266Z,97.30
2022-11-01T15:12:54.776Z,97.50
2022-11-01T15:15:38.286Z,97.80
2022-11-01T15:18:17.555Z,98.20
2022-11-01T15:21:27.300Z,98.50
2022-11-01T15:24:10.935Z,98.90
2022-11-01T15:26:42.347Z,99.20
2022-11-01T15:29:20.048Z,99.30
2022-11-01T15:32:09.106Z,99.50
2022-11-01T15:34:38.450Z,99.50
2022-11-01T15:37:29.048Z,99.60
2022-11-01T15:40:34.191Z,99.60
2022-11-01T15:43:05.606Z,99.70
2022-11-01T15:46:02.739Z,99.60
2022-11-01T15:48:41.116Z,99.60
2022-11-01T15:51:23.918Z,99.50
2022-11-01T15:53:59.799Z,99.40
2022-11-01T15:56:44.935Z,99.30
2022-11-01T15:59:28.329Z,99.30
2022-11-01T16:02:08.258Z,99.20
2022-11-01T16:04:47.162Z,99.10
2022-11-01T16:07:22.801Z,99.00
2022-11-01T16:10:09.333Z,98.80
2022-11-01T16:12:41.580Z,98.70
2022-11-01T16:15:24.889Z,98.70
2022-11-01T16:17:59.057Z,98.80
2022-11-01T16:20:34.072Z,98.80
2022-11-01T16:23:02.942Z,98.60
2022-11-01T16:25:33.153Z,98.60
2022-11-01T16:28:04.609Z,98.50
2022-11-01T16:30:40.254Z,98.40
2022-11-01T16:33:17.628Z,98.20
2022-11-01T16:35:47.352Z,98.20
2022-11-01T16:38:43.183Z,98.20
2022-11-01T16:41:20.458Z,98.10
2022-11-01T16:43:49.954Z,97.90
2022-11-01T16:46:19.749Z,97.90
2022-11-01T16:48:55.176Z,98.00
2022-11-01T16:51:27.079Z,98.00
2022-11-01T16:53:55.779Z,97.80
2022-11-01T16:56:42.270Z,97.80
2022-11-01T16:59:25.984Z,97.80
2022-11-01T17:01:57.705Z,97.70
2022-11-01T17:04:29.998Z,97.70
2022-11-01T17:06:59.219Z,97.70
2022-11-01T17:09:31.809Z,97.80
2022-11-01T17:12:00.234Z,97.80
2022-11-01T17:14:28.655Z,97.90
2022-11-01T17:16:57.592Z,98.00
2022-11-01T17:19:32.623Z,97.90
2022-11-01T17:22:02.944Z,98.00
2022-11-01T17:24:33.450Z,98.00
2022-11-01T17:27:05.467Z,98.10
2022-11-01T17:29:34.400Z,98.10
2022-11-01T17:32:04.244Z,98.10
2022-11-01T17:37:07.627Z,98.60
2022-11-01T17:39:35.982Z,98.30
2022-11-01T17:42:04.331Z,98.30
2022-11-01T17:44:32.983Z,98.30
2022-11-01T17:47:01.923Z,98.20
2022-11-01T17:49:30.669Z,98.20
2022-11-01T17:52:01.276Z,98.30
2022-11-01T17:54:30.033Z,98.40
2022-11-01T17:56:58.855Z,98.40
2022-11-01T17:59:27.262Z,98.30
2022-11-01T18:01:55.886Z,98.30
2022-11-01T18:04:24.865Z,98.20
2022-11-01T18:06:53.349Z,98.20
2022-11-01T18:09:25.262Z,98.10
2022-11-01T18:12:00.645Z,98.10
2022-11-01T18:14:48.903Z,98.10
2022-11-01T18:17:32.427Z,98.10
2022-11-01T18:20:09.019Z,98.10
2022-11-01T18:22:43.916Z,98.00
2022-11-01T18:25:25.773Z,98.00
2022-11-01T18:27:56.485Z,98.00
2022-11-01T18:30:26.010Z,98.00
2022-11-01T18:33:00.142Z,98.00
2022-11-01T18:35:34.253Z,98.00
2022-11-01T18:38:20.769Z,98.20
2022-11-01T18:40:58.251Z,98.30
2022-11-01T18:43:29.476Z,98.20
2022-11-01T18:46:23.438Z,98.10
2022-11-01T18:48:46.396Z,98.20
2022-11-01T18:51:20.535Z,98.10
2022-11-01T18:53:54.435Z,98.00
2022-11-01T18:56:26.257Z,98.00
2022-11-01T18:58:55.954Z,97.90
2022-11-01T19:01:31.911Z,97.90
2022-11-01T19:04:06.004Z,97.90
2022-11-01T19:06:34.370Z,97.90
2022-11-01T19:09:16.580Z,98.20
2022-11-01T19:11:46.362Z,97.90
2022-11-01T19:14:21.617Z,97.90
2022-11-01T19:16:50.867Z,97.90
2022-11-01T19:19:21.586Z,97.80
2022-11-01T19:21:50.003Z,98.10
2022-11-01T19:24:32.219Z,97.70
2022-11-01T19:27:03.774Z,97.80
2022-11-01T19:29:37.209Z,97.90
2022-11-01T19:32:06.561Z,98.00
2022-11-01T19:34:38.190Z,98.10
2022-11-01T19:37:20.595Z,98.10
2022-11-01T19:39:49.037Z,98.10
2022-11-01T19:42:26.351Z,98.20
2022-11-01T19:44:59.470Z,98.20
2022-11-01T19:47:36.903Z,98.20
2022-11-01T19:50:18.102Z,98.10
2022-11-01T19:52:47.637Z,98.20
2022-11-01T19:55:36.204Z,98.20
2022-11-01T19:58:25.082Z,98.20
2022-11-01T20:01:11.792Z,98.30
2022-11-01T20:03:43.247Z,98.30
2022-11-01T20:06:14.682Z,98.30
2022-11-01T20:08:45.237Z,98.40
2022-11-01T20:11:13.681Z,98.40
2022-11-01T20:13:43.603Z,98.50
2022-11-01T20:16:12.186Z,98.50
2022-11-01T20:18:41.299Z,98.60
2022-11-01T20:21:09.902Z,98.60
2022-11-01T20:23:39.126Z,98.70
2022-11-01T20:26:07.556Z,98.70
2022-11-01T20:28:35.916Z,98.70
2022-11-01T20:31:06.322Z,98.70
2022-11-01T20:33:35.267Z,98.80
2022-11-01T20:36:10.941Z,98.90
2022-11-01T20:38:40.179Z,99.00
2022-11-01T20:41:08.931Z,99.10
2022-11-01T20:43:37.785Z,99.20
2022-11-01T20:46:07.571Z,99.30
2022-11-01T20:48:35.892Z,99.40
2022-11-01T20:51:04.567Z,99.40
2022-11-01T20:53:32.915Z,99.50
2022-11-01T20:56:01.967Z,99.60
2022-11-01T20:58:30.481Z,99.60
2022-11-01T21:00:59.465Z,99.70
2022-11-01T21:03:41.387Z,99.80
2022-11-01T21:06:14.947Z,99.80
2022-11-01T21:08:45.168Z,99.90
2022-11-01T21:11:21.986Z,99.90
2022-11-01T21:13:51.884Z,99.90
2022-11-01T21:16:29.758Z,99.90
2022-11-01T21:19:02.973Z,99.90
2022-11-01T21:21:45.370Z,99.90
2022-11-01T21:24:35.482Z,99.90
2022-11-01T21:27:26.861Z,99.90
2022-11-01T21:30:13.369Z,99.90
2022-11-01T21:32:45.109Z,99.90
2022-11-01T21:35:40.422Z,99.90
2022-11-01T21:38:38.519Z,99.90
2022-11-01T21:41:31.668Z,99.90
2022-11-01T21:44:03.722Z,99.90
2022-11-01T21:46:36.768Z,99.90
2022-11-01T21:49:27.217Z,99.90
2022-11-01T21:52:00.457Z,99.90
2022-11-01T21:54:30.466Z,99.90
2022-11-01T21:56:59.228Z,99.90
2022-11-01T21:59:28.295Z,99.90
2022-11-01T22:01:58.118Z,99.90
2022-11-01T22:04:28.870Z,99.90
2022-11-01T22:06:59.294Z,99.90
2022-11-01T22:09:28.098Z,99.90
2022-11-01T22:11:56.877Z,99.90
2022-11-01T22:14:25.367Z,99.90
2022-11-01T22:16:56.619Z,99.90
2022-11-01T22:19:25.561Z,99.90
2022-11-01T22:21:53.916Z,99.90
2022-11-01T22:24:24.529Z,99.90
2022-11-01T22:26:52.933Z,99.90
2022-11-01T22:29:21.376Z,99.90
2022-11-01T22:31:50.554Z,99.90
2022-11-01T22:34:18.959Z,99.90
2022-11-01T22:36:47.341Z,99.90
2022-11-01T22:39:20.933Z,99.90
2022-11-01T22:41:51.448Z,99.90
2022-11-01T22:44:26.014Z,99.90
2022-11-01T22:46:59.099Z,99.90
2022-11-01T22:49:30.412Z,99.90
2022-11-01T22:52:03.200Z,99.90
2022-11-01T22:54:36.061Z,99.90
2022-11-01T22:57:15.047Z,99.90
2022-11-01T22:59:46.782Z,99.90
2022-11-01T23:02:27.873Z,99.90
2022-11-01T23:05:02.237Z,99.90
2022-11-01T23:07:34.883Z,99.90
2022-11-01T23:10:08.077Z,99.90
2022-11-01T23:12:55.782Z,99.90
2022-11-01T23:15:28.202Z,99.90
2022-11-01T23:18:02.252Z,99.90
2022-11-01T23:20:30.991Z,99.90
2022-11-01T23:23:01.552Z,99.90
2022-11-01T23:25:32.237Z,99.90
2022-11-01T23:28:02.012Z,99.90
2022-11-01T23:30:30.386Z,99.90
2022-11-01T23:32:59.558Z,99.90
2022-11-01T23:35:28.027Z,99.90
2022-11-01T23:37:59.455Z,99.90
2022-11-01T23:40:33.768Z,99.90
2022-11-01T23:43:03.807Z,99.90
2022-11-01T23:45:35.132Z,99.90
2022-11-01T23:48:03.996Z,99.90
2022-11-01T23:50:35.145Z,99.90
2022-11-01T23:53:06.270Z,99.90
2022-11-01T23:55:38.305Z,99.90
2022-11-01T23:58:11.567Z,99.90
